x

9439040 - Astoria, Or (asto3) Weather Station

6:54 - Fri 31st Jul 2015 All times are PDT. -7 hours from GMT.

  • Wind
    2mph, 5mph gusts
  • Sea Temp 70°f
  • Aire Temp 60°f
  • Sea Pressure 1019.4mb
  • 9439040 - Astoria, Or
  • 9439040 - Astoria, Or

More Historic Weather Station data

Upgrade to MSW Pro to gain access to the past 30 days of data for over 8000 Wavebouys and Weather Stations around the globe.

Join Pro

Comparision Forecast

View Surf forecast
   
vie 07/31 6:54 2 5 mph 1019.4mb 70f 60f
6:48 3
mph
1019.4mb 70f 60f
6:42  -  5 mph 1019.3mb 70f 60f
6:36 2 3 mph 1019.3mb 70f 60f
6:30 1 3 mph 1019.2mb 69f 60f
6:24 3 5 mph 1019.2mb 70f 60f
6:18 2 3 mph 1019.1mb 70f 60f
6:12 1 2 mph 1019.1mb 70f 60f
6:06  -  2 mph 1019mb 70f 60f
6:00  -  2 mph 1018.9mb 70f 61f
5:54  -  1 mph 1018.9mb 70f 60f
5:48  -  2 mph 1018.9mb 70f 60f
5:42 1 2 mph 1018.9mb 69f 60f
5:36 1 2 mph 1018.9mb 69f 60f
5:30 1 2 mph 1018.8mb 69f 60f
5:24 1
mph
1018.8mb 69f 60f
5:18 1 3 mph 1018.8mb 69f 60f
5:12 2 3 mph 1018.8mb 69f 60f
5:06 1 2 mph 1018.8mb 69f 61f
5:00 1
mph
1018.8mb 69f 60f
4:54  -  1 mph 1018.7mb 69f 60f
4:48  -  1 mph 1018.7mb 69f 60f
4:42  -  2 mph 1018.7mb 69f 60f
4:36  -  2 mph 1018.7mb 69f 60f
4:30 2
mph
1018.7mb 69f 60f
4:24 2
mph
1018.7mb 69f 60f
4:18 2 3 mph 1018.7mb 69f 60f
4:12 2 3 mph 1018.7mb 69f 60f
4:06 3 5 mph 1018.7mb 69f 60f
4:00 2 5 mph 1018.7mb 69f 60f
3:54 2
mph
1018.7mb 69f 61f
3:48 1 2 mph 1018.6mb 70f 61f
3:42 2
mph
1018.6mb 70f 61f
3:36 2
mph
1018.6mb 70f 62f
3:30 2 3 mph 1018.6mb 71f 62f
3:24 3 6 mph 1018.6mb 71f 62f
3:18 3 7 mph 1018.6mb 71f 62f
3:12 5 8 mph 1018.6mb 71f 62f
3:06 7 8 mph 1018.6mb 71f 62f
3:00 7 9 mph 1018.6mb 71f 62f
2:54 3 6 mph 1018.6mb 71f 63f
2:48 5 6 mph 1018.6mb 71f 63f
2:42 2 5 mph 1018.6mb 71f 63f
2:36 3 5 mph 1018.6mb 70f 63f
2:30 3 9 mph 1018.6mb 70f 63f
2:24 7 10 mph 1018.6mb 70f 63f
2:18 6 8 mph 1018.6mb 70f 63f
2:12 3 6 mph 1018.5mb 69f 64f
2:06 2 3 mph 1018.6mb 69f 63f
2:00 2
mph
1018.6mb 69f 64f
1:54  -  5 mph 1018.5mb 69f 64f
1:48 1 2 mph 1018.6mb 69f 63f
1:42 1 2 mph 1018.6mb 69f 64f
1:36 2 3 mph 1018.5mb 69f 64f
1:30 2 5 mph 1018.5mb 69f 64f
1:24 3 6 mph 1018.5mb 69f 64f
1:18  -  8 mph 1018.5mb 69f 64f
1:12 6 7 mph 1018.5mb 69f 65f
1:06  -  3 mph 1018.6mb 70f 64f
1:00 1 2 mph 1018.6mb 70f 65f
12:54 2 3 mph 1018.5mb 70f 65f
12:48 1 2 mph 1018.5mb 70f 65f
12:42 1 2 mph 1018.4mb 70f 65f
12:36 2 3 mph 1018.4mb 70f 65f
12:30 1 5 mph 1018.4mb 71f 65f
12:24  -  2 mph 1018.5mb 71f 65f
12:18 3 6 mph 1018.4mb 71f 65f
12:12  -  3 mph 1018.4mb 71f 65f
12:06 1 3 mph 1018.4mb 71f 65f
12:00  -  1 mph 1018.4mb 71f 65f
jue 07/30 11:54  -  2 mph 1018.4mb 71f 65f
11:48 2 3 mph 1018.3mb 72f 65f
11:42 2 3 mph 1018.3mb 72f 66f
11:36 1 2 mph 1018.3mb 73f 66f
11:30 1 5 mph 1018.3mb 73f 66f
11:24 2 3 mph 1018.3mb 73f 66f
11:18 1 2 mph 1018.3mb 73f 66f
11:12 2 6 mph 1018.3mb 73f 67f
11:06 2 5 mph 1018.3mb 73f 67f
11:00 3 5 mph 1018.3mb 73f 67f
10:54  -  6 mph 1018.3mb 73f 67f
10:48 5 8 mph 1018.3mb 73f 67f
10:42 5 9 mph 1018.3mb 73f 68f
10:36 1 3 mph 1018.3mb 73f 67f
10:30  -  8 mph 1018.2mb 73f 68f
10:24 5 6 mph 1018.1mb 73f 68f
10:18 1 2 mph 1018.2mb 73f 70f
10:12 1 2 mph 1018.1mb 73f 70f
10:06  -  2 mph 1018.1mb 73f 69f
10:00 1 3 mph 1018mb 73f 70f
9:54 1 8 mph 1017.9mb 73f 70f
9:48 5 6 mph 1017.8mb 73f 70f
9:42 1 2 mph 1017.8mb 73f 71f
9:36 1 7 mph 1017.8mb 73f 71f
9:30 6 9 mph 1017.7mb 73f 71f
9:24 5 7 mph 1017.6mb 73f 72f
9:18  -  3 mph 1017.5mb 73f 73f
9:12 2
mph
1017.4mb 73f 72f
9:06 1 3 mph 1017.3mb 73f 73f
9:00 5 10 mph 1017.2mb 73f 73f
8:54 7 10 mph 1017.2mb 73f 72f
8:48 7 13 mph 1017.2mb 73f 73f
8:42 9 11 mph 1017.1mb 72f 73f
8:36 6 10 mph 1017.1mb 72f 74f
8:30 7 10 mph 1017mb 72f 74f
8:24 9 10 mph 1016.9mb 72f 74f
8:18 2 8 mph 1016.9mb 72f 77f
8:12 8 9 mph 1016.8mb 72f 77f
8:06 5 6 mph 1016.8mb 72f 76f
8:00 5 6 mph 1016.8mb 72f 78f
7:54 5 6 mph 1016.9mb 72f 78f
7:48 5 6 mph 1016.9mb 72f 79f
7:42 5 7 mph 1016.8mb 72f 80f
7:36 5 6 mph 1016.8mb 71f 81f
7:30 3 6 mph 1016.8mb 71f 82f
7:24 3 6 mph 1016.8mb 71f 82f
7:18 5 7 mph 1016.8mb 71f 81f
7:12 5 6 mph 1016.7mb 71f 79f
7:06 2 3 mph 1016.7mb 71f 80f
7:00 1 3 mph 1016.7mb 71f 79f
6:54 3 7 mph 1016.7mb 71f 79f
6:48 6 7 mph 1016.7mb 71f 82f
6:42 7
mph
1016.7mb 72f 82f
6:36 6
mph
1016.7mb 72f 82f
6:30 3 5 mph 1016.7mb 71f 80f
6:24 5 6 mph 1016.7mb 72f 80f
6:18 2 3 mph 1016.7mb 72f 80f
6:12 1 2 mph 1016.7mb 72f 80f
6:06  -  3 mph 1016.7mb 72f 81f
6:00 1 6 mph 1016.7mb 72f 81f
5:54 6
mph
1016.8mb 71f 80f
5:48 3 5 mph 1016.8mb 71f 80f
5:42 3 5 mph 1016.8mb 71f 80f
5:36 1 5 mph 1016.8mb 70f 80f
5:30 5 7 mph 1016.8mb 70f 80f
5:24 6 7 mph 1016.8mb 70f 79f
5:18 6 8 mph 1016.8mb 70f 80f
5:12 7 8 mph 1016.8mb 70f 80f
5:06 7 8 mph 1016.8mb 69f 80f
5:00 8 9 mph 1016.7mb 69f 80f
4:54 8 9 mph 1016.8mb 69f 80f
4:48 9 10 mph 1016.8mb 69f 80f
4:42 9 11 mph 1016.8mb 68f 80f
4:36 10 11 mph 1016.7mb 69f 79f
4:30 6 10 mph 1016.8mb 69f 79f
4:24 7 10 mph 1016.8mb 69f 79f
4:18 8 10 mph 1016.8mb 69f 79f
4:12 9 13 mph 1016.8mb 69f 78f
4:06 11 13 mph 1016.8mb 69f 78f
4:00 10 11 mph 1016.8mb 69f 78f
3:54 10 13 mph 1016.9mb 70f 77f
3:48 10 13 mph 1016.8mb 70f 78f
3:42 11 13 mph 1016.9mb 69f 78f
3:36 11 14 mph 1016.8mb 69f 78f
3:30 11 13 mph 1016.9mb 69f 78f
3:24 11 13 mph 1016.9mb 70f 76f
3:18 10 11 mph 1016.9mb 70f 77f
3:12 10 13 mph 1017mb 70f 78f
3:06 9 10 mph 1017mb 70f 79f
3:00 7 11 mph 1017.1mb 70f 80f
2:54 9 13 mph 1017.1mb 71f 79f
2:48 10 14 mph 1017.2mb 71f 78f
2:42 13 15 mph 1017.2mb 71f 78f
2:36 14 15 mph 1017.2mb 71f 78f
2:30 15
mph
1017.2mb 71f 78f
2:24 14
mph
1017.2mb 71f 78f
2:18 11 13 mph 1017.2mb 71f 76f
2:12 11 13 mph 1017.3mb 71f 76f
2:06 10 11 mph 1017.4mb 71f 76f
2:00 9 13 mph 1017.4mb 71f 76f
1:54 9 11 mph 1017.4mb 71f 76f
1:48 11 13 mph 1017.4mb 71f 76f
1:42 10 11 mph 1017.4mb 71f 76f
1:36 8 11 mph 1017.4mb 72f 75f
1:30 8 11 mph 1017.5mb 72f 74f
1:24 8 10 mph 1017.5mb 71f 73f
1:18 8 11 mph 1017.6mb 71f 73f
1:12 10 11 mph 1017.6mb 71f 71f
1:06 8 11 mph 1017.7mb 71f 72f
1:00 9 10 mph 1017.7mb 71f 73f
12:54 6 7 mph 1017.7mb 71f 74f
12:48 1 5 mph 1017.7mb 72f 76f
12:42 1 3 mph 1017.7mb 72f 75f
12:36 1 2 mph 1017.7mb 73f 75f
12:30 1 2 mph 1017.7mb 73f 75f
12:24 2 3 mph 1017.7mb 73f 74f
12:18 2
mph
1017.8mb 73f 74f
12:12 2 3 mph 1017.7mb 73f 73f
12:06 3 5 mph 1017.8mb 73f 73f
12:00 3 5 mph 1017.8mb 73f 73f
11:54 3 5 mph 1017.8mb 73f 73f
11:48 3 5 mph 1017.8mb 73f 72f
11:42 3 5 mph 1017.8mb 73f 71f
11:36 3 5 mph 1017.8mb 73f 71f
11:30 5
mph
1017.8mb 73f 71f
11:24 3 6 mph 1017.8mb 73f 71f
11:18 3 6 mph 1017.8mb 73f 71f
11:12 3 7 mph 1017.8mb 73f 73f
11:06 2 5 mph 1017.7mb 73f 77f
11:00 1
mph
1017.6mb 73f 77f
10:54  -  1 mph 1017.7mb 73f 76f
10:48  -  1 mph 1017.7mb 73f 76f
10:42  -  2 mph 1017.7mb 73f 75f
10:36 1 3 mph 1017.7mb 73f 74f
10:30 1
mph
1017.7mb 73f 75f
10:24 1 5 mph 1017.7mb 73f 75f
10:18 3 6 mph 1017.7mb 73f 74f
10:12 2 3 mph 1017.7mb 73f 75f
10:06  -  2 mph 1017.7mb 72f 74f
10:00 2 6 mph 1017.6mb 72f 73f
9:54 5 6 mph 1017.7mb 72f 72f
9:48 3 7 mph 1017.7mb 72f 71f
9:42 6 8 mph 1017.7mb 72f 70f
9:36 5 9 mph 1017.8mb 72f 70f
9:30 3 7 mph 1017.8mb 72f 70f
9:24 2 7 mph 1017.8mb 72f 70f
9:18 5 10 mph 1017.9mb 72f 69f
9:12 7 9 mph 1017.9mb 72f 69f
9:06 7 10 mph 1017.9mb 72f 68f
9:00 7 9 mph 1017.9mb 72f 68f
8:48 6 8 mph 1018mb 72f 68f
8:42 6 7 mph 1018mb 72f 68f
8:36 5 7 mph 1018mb 71f 68f
8:30 2 6 mph 1018.1mb 71f 68f
8:24 3 7 mph 1018mb 71f 67f
8:18 3 7 mph 1018.1mb 71f 66f
8:12 6 7 mph 1018mb 71f 66f
8:06 5 9 mph 1018mb 71f 66f
8:00 7 11 mph 1017.9mb 71f 66f
7:54 8 10 mph 1017.9mb 70f 66f
7:48 6 9 mph 1017.9mb 70f 65f
7:42 6 9 mph 1017.9mb 70f 64f
7:36 5 8 mph 1018mb 69f 64f
7:30 3 7 mph 1018mb 69f 64f
7:24 2 5 mph 1017.9mb 69f 63f
7:18 2 6 mph 1017.9mb 69f 63f
7:12 2 6 mph 1017.9mb 69f 63f
7:06 3 6 mph 1017.8mb 69f 63f
7:00  -  2 mph - - -
6:54 3 7 mph 1017.8mb 69f 62f
6:42 3 5 mph 1017.7mb 69f 62f
6:36 2 5 mph 1017.7mb 69f 62f
6:30 2 5 mph 1017.7mb 69f 62f
6:24 5 6 mph 1017.6mb 69f 62f
6:18 2 5 mph 1017.6mb 69f 62f
6:00 3 6 mph 1017.5mb 69f 62f
5:54 5 6 mph 1017.5mb 68f 62f
5:42  -  mph - - 63f
5:36  -  mph - - 63f
5:30  -  mph - - 63f
5:24  -  mph - - 63f
5:18  -  mph - - 62f
5:12  -  mph - - 62f
5:06  -  mph - - 62f
5:00  -  mph - - 63f
mié 07/29 8:36  -  mph - - 77f
8:30  -  mph - - 78f
8:24  -  mph - - 78f
8:18  -  mph - - 78f
8:12  -  mph - - 78f
8:06  -  mph - - 78f
8:00  -  mph - - 79f
7:54  -  mph - - 80f
7:48  -  mph - - 80f
7:42  -  mph - - 80f
7:36  -  mph - - 80f
7:30  -  mph - - 80f
7:24  -  mph - - 81f
7:18  -  mph - - 82f
7:12  -  mph - - 82f
7:06  -  mph - - 82f
7:00  -  mph - 72f 82f
6:54  -  mph - 71f 82f
6:48 8 17 mph 1017.8mb 71f 81f
6:42 7 14 mph 1017.8mb 72f 82f
6:36 8 15 mph 1017.9mb 72f 81f
6:30  -  mph - 72f 82f
6:24  -  mph - 72f 80f
6:18  -  mph - - 81f
6:12  -  mph - - 81f
6:06  -  mph - - 81f
6:00  -  mph - - 80f
5:54  -  mph - - 80f
5:48 7 11 mph 1018.2mb 72f 79f
5:42 9 11 mph 1018.2mb 71f 78f
5:36 9 14 mph 1018.3mb 70f 79f
5:30  -  mph 1018.3mb 70f 79f
5:24  -  mph 1018.3mb 69f 79f
5:18  -  mph 1018.4mb 69f 79f
5:12  -  mph 1018.4mb 69f 80f
5:06  -  mph 1018.5mb 69f 80f
5:00  -  mph - 69f 80f
4:54  -  mph - 69f 79f
4:48  -  mph - 69f 77f
4:42  -  mph - 69f 76f
4:36  -  mph - 69f 77f
4:30  -  mph - 68f 76f
4:24  -  mph - 69f 76f
4:18  -  mph - 69f 75f
4:12  -  mph - 68f 76f
4:06  -  mph - 68f 75f
4:00 11 14 mph 1018.9mb 68f 74f
3:54 11 13 mph 1019mb 68f 74f
3:48 13 14 mph 1019mb 68f 73f
3:42 9 13 mph 1019mb 68f 73f
3:36 11 14 mph 1019.1mb 68f 73f
3:30  -  mph - 69f 73f
3:24  -  mph - 69f 73f
3:18  -  mph - - 73f
3:12  -  mph - - 73f
3:06  -  mph - - 73f
3:00  -  mph - 70f 72f
2:54  -  mph - 70f 72f
2:48  -  mph - 70f 72f
2:42  -  mph - 70f 72f
2:36  -  mph - 70f 71f
2:30  -  mph - 70f 72f
2:24  -  mph - 70f 71f
2:18  -  mph - 70f 71f
2:12  -  mph - 70f 71f
2:06  -  mph - 70f 71f
2:00  -  mph 1020mb 70f 71f
1:54  -  mph 1020mb 70f 70f
1:48  -  mph 1020.1mb 70f 70f
1:42  -  mph 1020.1mb 70f 70f
1:36  -  mph 1020.1mb 69f 70f
1:30  -  mph 1020.1mb 69f 70f
1:24  -  mph 1020.1mb 69f 70f
1:18  -  mph - - 70f
1:12  -  mph - - 71f
1:06  -  mph - - 71f
1:00  -  mph - - 71f
12:54  -  mph - - 72f
12:48  -  mph - - 71f
12:42  -  mph - - 71f
12:36  -  mph - - 71f
12:30  -  mph - - 71f
12:24  -  mph - - 71f
12:18  -  mph - - 71f
12:12  -  mph - - 71f
12:06  -  mph - - 71f
12:00  -  mph - - 71f
11:54  -  mph - - 71f
11:48  -  mph - - 71f
11:42  -  mph - - 69f
11:36  -  mph - - 69f
11:30  -  mph - - 68f
11:24  -  mph - - 68f
11:18  -  mph - - 69f
11:12  -  mph - - 69f
11:06  -  mph - - 69f
11:00  -  mph - - 69f
10:54  -  mph - - 69f
10:48  -  mph - - 69f
10:42  -  mph - - 69f
10:36  -  mph - - 68f
10:30  -  mph - - 68f
10:24  -  mph - - 68f
10:18 2
mph
1021mb 72f 68f
10:12 2
mph
1021mb 72f 67f
10:06 2
mph
1021mb 72f 68f
10:00 2
mph
1021.1mb 72f 68f
9:54 1 2 mph 1021.1mb 71f 68f
9:48 2
mph
1021.1mb 71f 68f
8:54  -  2 mph 1021.4mb 71f 67f
8:48  -  2 mph 1021.4mb 71f 67f
8:42  -  2 mph 1021.4mb 71f 66f
8:36  -  2 mph 1021.5mb 71f 65f
8:30  -  3 mph 1021.5mb 71f 65f
8:24 1 5 mph 1021.5mb 71f 64f
8:18 3 6 mph 1021.5mb 71f 64f
8:12 2 5 mph 1021.5mb 70f 64f
8:06  -  1 mph 1021.4mb 70f 63f
8:00  -  2 mph 1021.4mb 70f 63f
7:54 1 2 mph 1021.4mb 70f 63f
7:48  -  1 mph 1021.4mb 70f 63f
7:42  -  2 mph 1021.4mb 70f 62f
7:36  -  1 mph 1021.4mb 70f 62f
7:30 1 2 mph 1021.4mb 70f 62f
7:24 1 2 mph 1021.4mb 69f 62f
7:18 1 3 mph 1021.4mb 69f 62f
7:12 2 3 mph 1021.3mb 69f 62f
7:06  -  2 mph 1021.3mb 69f 61f
7:00  -  1 mph 1021.3mb 69f 61f
6:54  -  1 mph 1021.3mb 69f 61f
6:48  -  1 mph 1021.3mb 69f 61f
6:42  -  1 mph 1021.3mb 69f 61f
6:36  -  1 mph 1021.3mb 69f 61f
6:30  -  1 mph 1021.3mb 69f 61f
6:24  -  1 mph 1021.2mb 69f 60f
6:18 1
mph
1021.2mb 69f 60f
6:12  -  1 mph 1021.2mb 69f 61f
6:06 1 3 mph 1021.1mb 69f 61f
6:00 2 3 mph 1021.1mb 69f 61f
5:54 2 3 mph 1021.2mb 69f 61f
5:48 1 3 mph 1021.2mb 69f 61f
5:42 1 2 mph 1021.2mb 69f 61f
5:36 1 3 mph 1021.2mb 69f 61f
5:30 1 2 mph 1021.2mb 69f 61f
5:24  -  2 mph 1021.3mb 69f 61f
5:18 1 2 mph 1021.3mb 69f 61f
5:12  -  1 mph 1021.2mb 69f 61f
5:06  -  2 mph 1021.2mb 69f 61f
5:00 1 2 mph 1021.3mb 69f 61f
4:54 1 2 mph 1021.3mb 69f 61f
4:48  -  2 mph 1021.3mb 69f 61f
4:42 2 5 mph 1021.3mb 69f 61f
4:36 2 3 mph 1021.3mb 69f 61f
4:30 2 3 mph 1021.4mb 69f 61f
4:24 1 2 mph 1021.5mb 69f 61f
4:18 1 2 mph 1021.4mb 69f 61f
4:12 2
mph
1021.4mb 69f 61f
4:06 1 2 mph 1021.4mb 69f 62f
4:00 1 2 mph 1021.4mb 69f 62f
3:54  -  2 mph 1021.4mb 69f 62f
3:48 2 3 mph 1021.4mb 69f 62f
3:42 2 5 mph 1021.4mb 69f 62f
3:36 2 3 mph 1021.5mb 69f 62f
3:30 2 5 mph 1021.5mb 69f 62f
3:24 3 5 mph 1021.5mb 69f 63f
3:18 2 3 mph 1021.5mb 69f 63f
3:12 3 5 mph 1021.5mb 69f 62f
3:06 2 5 mph 1021.5mb 69f 62f
3:00 2
mph
1021.5mb 69f 63f
2:54  -  3 mph 1021.4mb 69f 63f
2:48 2
mph
1021.5mb 69f 63f
2:42 2
mph
1021.5mb 69f 63f
2:36 2
mph
1021.6mb 69f 63f
2:30 1 3 mph 1021.7mb 69f 63f
2:24  -  2 mph 1021.7mb 69f 63f
2:18  -  2 mph 1021.7mb 69f 63f
2:12 1 3 mph 1021.8mb 69f 64f
2:06 2 3 mph 1021.7mb 69f 64f
2:00 2 3 mph 1021.8mb 69f 64f
1:54 2 6 mph 1021.8mb 69f 64f
1:48 2 6 mph 1021.9mb 69f 64f
1:42  -  2 mph 1022mb 69f 64f
1:36 2 3 mph 1022mb 70f 64f
1:30 2 5 mph 1022mb 70f 64f
1:24 3 6 mph 1022.1mb 70f 64f
1:18 3 6 mph 1022.1mb 70f 64f
1:12 5 6 mph 1022.1mb 70f 64f
1:06 2 6 mph 1022.1mb 70f 64f
1:00 3 6 mph 1022.2mb 69f 64f
12:54 5 7 mph 1022.2mb 69f 64f
12:48 2 3 mph 1022.2mb 69f 64f
12:42 1 2 mph 1022.2mb 69f 64f
12:36  -  3 mph 1022.3mb 69f 65f
12:30 3 5 mph 1022.3mb 69f 65f
12:24 2 3 mph 1022.3mb 68f 65f
12:18 2 7 mph 1022.3mb 69f 65f
12:12 8 10 mph 1022.3mb 69f 65f
12:06 7 9 mph 1022.3mb 69f 66f
12:00 3 5 mph 1022.3mb 69f 65f
mar 07/28 11:54 3 5 mph 1022.3mb 69f 65f
11:48 1
mph
- 69f 65f
11:42  -  1 mph - 69f 65f
11:36  -  1 mph - 69f 65f
11:30  -  2 mph 1022.3mb 69f 65f
11:24 2 5 mph 1022.4mb 70f 65f
11:18 2 5 mph 1022.5mb 70f 65f
11:12 3 6 mph 1022.5mb 70f 65f
11:06 5 7 mph 1022.6mb 70f 65f
11:00 6
mph
1022.6mb 70f 66f
10:54 5 6 mph 1022.7mb 70f 66f
10:48 3 5 mph 1022.8mb 70f 67f
10:42 2 3 mph 1022.8mb 70f 67f
10:36 2 5 mph 1022.8mb 70f 68f
10:30 3 8 mph 1022.8mb 70f 68f
10:24 5 10 mph 1022.7mb 70f 68f
10:18 8 15 mph 1022.7mb 70f 68f
10:12 10 14 mph 1022.7mb 70f 68f
10:06 7 11 mph 1022.7mb 71f 68f
10:00 9 15 mph 1022.6mb 71f 68f
9:54 14 16 mph 1022.5mb 71f 68f
9:48 14 16 mph 1022.5mb 71f 68f
9:42 14 17 mph 1022.5mb 71f 68f
9:36 13 15 mph 1022.5mb 71f 68f
9:30 13 14 mph 1022.4mb 71f 68f
9:24 10 11 mph 1022.4mb 71f 69f
9:18 10 11 mph 1022.4mb 71f 69f
9:12 9 10 mph 1022.3mb 71f 70f
9:06 8 10 mph 1022.3mb 71f 70f
9:00 8 10 mph 1022.3mb 71f 70f
8:54 7 8 mph 1022.2mb 71f 71f
8:48 6 8 mph 1022.2mb 71f 71f
8:42 5 6 mph 1022.2mb 71f 71f
8:36 6
mph
1022.3mb 71f 72f
8:30 2 3 mph 1022.2mb 71f 72f
8:24 3 5 mph 1022.1mb 71f 72f
8:18 5 6 mph 1022.2mb 71f 72f
8:12 2 3 mph 1022.2mb 71f 73f
8:06 2 5 mph 1022.2mb 71f 73f
8:00 3 6 mph 1022.3mb 70f 73f
7:54 5 6 mph 1022.3mb 70f 72f
7:48 5 6 mph 1022.3mb 70f 72f
7:42 2 3 mph 1022.3mb 70f 73f
7:36 2 3 mph 1022.2mb 70f 74f
7:30 2 3 mph 1022.2mb 70f 73f
7:24 3 5 mph 1022.2mb 70f 72f
7:18 5 7 mph 1022.2mb 70f 73f
7:12 6 8 mph 1022.2mb 70f 73f
7:06 7 9 mph 1022.2mb 70f 72f
7:00 8 9 mph 1022.3mb 71f 72f
6:54 7 8 mph 1022.2mb 71f 73f
6:48 2 6 mph 1022.3mb 71f 74f
6:42 6
mph
1022.2mb 71f 73f
6:36 6 7 mph 1022.2mb 71f 73f
6:30 5
mph
1022.2mb 71f 73f
6:24 2 5 mph 1022.2mb 71f 74f
6:18 1 3 mph 1022.1mb 71f 75f
6:12 3 6 mph 1022.2mb 70f 73f
6:06 5 7 mph 1022.2mb 70f 73f
6:00 5 7 mph 1022.2mb 70f 72f
5:54 2 6 mph 1022.2mb 71f 74f
5:48 6
mph
1022.2mb 71f 73f
5:42 5 6 mph 1022.1mb 71f 73f
5:36 5 8 mph 1022.2mb 71f 73f
5:30 7 8 mph 1022.2mb 71f 72f
5:24 5 8 mph 1022.2mb 71f 74f
5:18 6 8 mph 1022.2mb 71f 74f
5:12 6 8 mph 1022.3mb 71f 73f
5:06 6 8 mph 1022.3mb 71f 73f
5:00 6 9 mph 1022.3mb 71f 73f
4:54 8 10 mph 1022.3mb 71f 73f
4:48 8 10 mph 1022.4mb 71f 73f
4:42 10 13 mph 1022.4mb 71f 72f
4:36 9 11 mph 1022.5mb 71f 72f
4:30 9 11 mph 1022.5mb 71f 72f
4:24 10 14 mph 1022.6mb 71f 72f
4:18 11 14 mph 1022.6mb 71f 72f
4:12 11 15 mph 1022.6mb 68f 72f
4:06 11 14 mph 1022.6mb 68f 72f
4:00 10 13 mph 1022.7mb 68f 71f
3:54 8 13 mph 1022.8mb 71f 70f
3:48 9 20 mph 1022.8mb 71f 70f
3:42 13 17 mph 1022.8mb 71f 69f
3:36 11 17 mph 1022.9mb 71f 69f
3:30 15 17 mph 1023mb 70f 68f
3:24 15 17 mph 1023.1mb 68f 68f
3:18 15 18 mph 1023.2mb 66f 68f
3:12 16 17 mph 1023.3mb 66f 68f
3:06 14 17 mph 1023.3mb 66f 68f
3:00 14 16 mph 1023.4mb 66f 68f
2:54 13 15 mph 1023.4mb 66f 68f
2:48 13 15 mph 1023.4mb 67f 69f
2:42 10 15 mph 1023.5mb 67f 69f
2:36 13 15 mph 1023.6mb 68f 69f
2:30 13 14 mph 1023.5mb 68f 69f
2:24 11 14 mph 1023.6mb 68f 69f
2:18 9 10 mph 1023.7mb 68f 69f
2:12 8 13 mph 1023.8mb 69f 69f
2:06 11 14 mph 1023.8mb 69f 68f
2:00 11 14 mph 1023.9mb 69f 68f
1:54 11 14 mph 1024mb 69f 67f
1:48 13 14 mph 1023.9mb 69f 67f
1:42 13 14 mph 1023.9mb 69f 67f
1:36 10 13 mph 1024mb 69f 67f
1:30 10 13 mph 1024mb 69f 67f
1:24 9 11 mph 1024.1mb 69f 67f
1:18 10 11 mph 1024.2mb 69f 67f
1:12 10 11 mph 1024.2mb 69f 67f
1:06 9 11 mph 1024.3mb 69f 66f
1:00 9 10 mph 1024.3mb 69f 66f
12:54 9 10 mph 1024.4mb 69f 66f
12:48 8 9 mph 1024.4mb 69f 65f
12:42 8
mph
1024.5mb 69f 65f
12:36 6 7 mph 1024.5mb 69f 66f
12:30 5 6 mph 1024.6mb 69f 65f
12:24 3 6 mph 1024.6mb 69f 65f
12:18 3 5 mph 1024.6mb 69f 64f
12:12 5
mph
1024.7mb 69f 65f
12:06 2
mph
1024.7mb 69f 65f
12:00 2 3 mph 1024.8mb 69f 64f
11:54 2 3 mph 1024.9mb 69f 65f
11:48 2 3 mph 1024.9mb 70f 65f
11:42 2 3 mph 1024.8mb 70f 65f
11:36 2 3 mph 1024.8mb 70f 65f
11:30 1 3 mph 1024.8mb 70f 65f
11:24 2 3 mph 1024.8mb 70f 65f
11:18 2 3 mph 1024.8mb 70f 64f
11:12 2
mph
1024.8mb 70f 64f
11:06 2 3 mph 1024.8mb 70f 64f
11:00 2 3 mph 1024.9mb 70f 64f
10:54 1 2 mph 1024.8mb 70f 64f
10:48 2
mph
1024.9mb 70f 63f
10:42 1 3 mph 1024.9mb 70f 64f
10:36 2 3 mph 1025mb 70f 63f
10:30 2 3 mph 1025mb 70f 63f
10:24 2 3 mph 1025.1mb 70f 63f
10:18 1 3 mph 1025.2mb 70f 63f
10:12 2 3 mph 1025.2mb 70f 62f
10:06 2 3 mph 1025.2mb 70f 62f
10:00 2 3 mph 1025.2mb 70f 62f
9:54 2 3 mph 1025.2mb 70f 62f
9:48 2 3 mph 1025.2mb 70f 61f
9:42 2
mph
1025.3mb 70f 62f
9:36 1 3 mph 1025.3mb 70f 61f
9:30 2 5 mph 1025.5mb 70f 61f
9:24 2 3 mph 1025.5mb 70f 62f
9:18 1 3 mph 1025.5mb 70f 62f
9:12 2 6 mph 1025.4mb 70f 61f
9:06 3 6 mph 1025.4mb 70f 60f
9:00 5 6 mph 1025.4mb 70f 60f
8:54 2 3 mph 1025.4mb 69f 61f
8:48 3 6 mph 1025.5mb 69f 60f
8:42 3 5 mph 1025.5mb 69f 60f
8:36 3 6 mph 1025.5mb 69f 60f
8:30 2 3 mph 1025.6mb 69f 60f
8:24 3 6 mph 1025.5mb 69f 60f
8:18 2 6 mph 1025.5mb 69f 60f
8:12 3 5 mph 1025.4mb 69f 59f
8:06 3 5 mph 1025.4mb 69f 59f
8:00 3 6 mph 1025.4mb 69f 59f
7:54 3 5 mph 1025.4mb 69f 59f
7:48 3 6 mph 1025.5mb 69f 58f
7:42 5 7 mph 1025.5mb 69f 58f
7:36 5 6 mph 1025.5mb 68f 58f
7:30 5 6 mph 1025.4mb 68f 58f
7:24 5 7 mph 1025.4mb 68f 58f
7:18 5 8 mph 1025.4mb 68f 58f
7:12 6 9 mph 1025.3mb 68f 59f
7:06 8 9 mph 1025.3mb 68f 59f
7:00 8 10 mph 1025.4mb 68f 59f
6:54 9 10 mph 1025.3mb 68f 59f
6:48 8 9 mph 1025.2mb 68f 59f
6:42 7 9 mph 1025.2mb 68f 59f
6:36 6 10 mph 1025.2mb 68f 59f
6:30 7 11 mph 1025.2mb 68f 59f
6:24 11 14 mph 1025.2mb 68f 60f
6:18 8 11 mph 1025.3mb 68f 60f
6:12 8 11 mph 1025.4mb 68f 60f
6:06 8 11 mph 1025.4mb 68f 60f
6:00 5 13 mph 1025.3mb 68f 60f
5:54 6 8 mph 1025.3mb 68f 61f
5:48 5 7 mph 1025.3mb 68f 60f
5:42 6 7 mph 1025.2mb 68f 60f
5:36 5 8 mph 1025.2mb 68f 60f
5:30 6 7 mph 1025.2mb 68f 60f
5:24 6 8 mph 1025.2mb 68f 60f
5:18 7 9 mph 1025.3mb 68f 60f
5:12 9 11 mph 1025.2mb 68f 60f
5:06 9 10 mph 1025.3mb 68f 60f
5:00 8 11 mph 1025.3mb 68f 60f
4:54 7 8 mph 1025.1mb 68f 60f
4:48 6 9 mph 1025.2mb 68f 61f
4:42 3 7 mph 1025.1mb 68f 61f
4:36 6 7 mph 1025.2mb 68f 61f
4:30 3 6 mph 1025.2mb 68f 60f
4:24 2 5 mph 1025.2mb 68f 60f
4:18 2 6 mph 1025.1mb 68f 61f
4:12 3 7 mph 1025.1mb 68f 61f
4:06 6 7 mph 1025.1mb 68f 61f
4:00 3 7 mph 1025.2mb 68f 61f
3:54 3 7 mph 1025.2mb 68f 61f
3:48 5 8 mph 1025.2mb 68f 61f
3:42 6 9 mph 1025.2mb 68f 61f
3:36 7 9 mph 1025.3mb 68f 61f
3:30 8 10 mph 1025.2mb 68f 61f
3:24 9 11 mph 1025.2mb 68f 60f
3:18 9 11 mph 1025.2mb 68f 61f
3:12 9 11 mph 1025.2mb 68f 61f
3:06 8 10 mph 1025.2mb 68f 61f
3:00 9 11 mph 1025.2mb 68f 61f
2:54 10 13 mph 1025.3mb 68f 61f
2:48 8 11 mph 1025.2mb 68f 61f
2:42 6 11 mph 1025.2mb 68f 61f
2:36 8 9 mph 1025.3mb 68f 61f
2:30 8 11 mph 1025.2mb 68f -
2:24 10 14 mph 1025.3mb 68f -
2:18  -  mph - - 61f
2:12  -  mph - - 61f
2:06  -  mph - - 61f
2:00 3 7 mph 1025.4mb 68f 61f
1:54 6 8 mph 1025.4mb 68f 61f
1:48 5 7 mph 1025.4mb 68f 61f
1:42 6 9 mph 1025.4mb 68f 61f
1:36 6 9 mph 1025.4mb 68f 61f
1:30 6 8 mph 1025.4mb 68f 61f
1:24 5 7 mph 1025.4mb 68f 61f
1:18 1 5 mph 1025.4mb 68f 61f
1:12 5 7 mph 1025.4mb 69f 61f
1:06 5 7 mph 1025.4mb 69f 61f
1:00 7 10 mph 1025.5mb 68f 61f
12:54 5 8 mph 1025.5mb 68f 61f
12:48 5 9 mph 1025.5mb 68f 61f
12:42 7 9 mph 1025.6mb 68f 61f
12:36 8 9 mph 1025.6mb 69f 62f
12:30 7 9 mph 1025.6mb 69f 61f
12:24 6 9 mph 1025.6mb 69f 62f
12:18 6 10 mph 1025.7mb 69f 62f
12:12 7 10 mph 1025.7mb 69f 62f
12:06 9 13 mph 1025.7mb 69f 62f
12:00 6 8 mph 1025.8mb 69f 62f
lun 07/27 11:54 3 9 mph 1025.7mb 69f 62f
11:48 6 10 mph 1025.8mb 68f 62f
11:42 5 8 mph 1025.8mb 68f 62f
11:36 5 6 mph 1025.8mb 68f 62f
11:30 3 6 mph 1025.8mb 68f 62f
11:24 3 8 mph 1025.8mb 68f 62f
11:18 6 8 mph 1025.8mb 68f 62f
11:12 5 8 mph 1025.8mb 68f 62f
11:06 6 8 mph 1025.8mb 68f 62f
11:00 5 8 mph 1025.8mb 68f 62f
10:54 5 8 mph 1025.8mb 69f 62f
10:48 5 8 mph 1025.8mb 69f 62f
10:42 6 8 mph 1025.9mb 69f 62f
10:36 7 9 mph 1025.9mb 69f 62f
10:30 7 11 mph 1025.9mb 69f 62f
10:24 8 10 mph 1025.9mb 69f 62f
10:18 8 9 mph 1025.9mb 69f 62f
10:12 7 9 mph 1025.9mb 70f 62f
10:06 7 9 mph 1025.9mb 70f 62f
10:00 6 9 mph 1025.9mb 70f 62f
9:54 7 9 mph 1025.9mb 70f 62f
9:48 5 8 mph 1025.8mb 70f 62f
9:42 7 9 mph 1025.8mb 70f 63f
9:36 8 10 mph 1025.8mb 70f 63f
9:30 8 10 mph 1025.9mb 70f 63f
9:24 7 13 mph 1025.8mb 70f 63f
9:18 8 10 mph 1025.6mb 70f 63f
9:12 8 10 mph 1025.6mb 70f 63f
9:06 8 9 mph 1025.5mb 71f 63f
9:00 7 11 mph 1025.4mb 71f 64f
8:54 8 14 mph 1025.4mb 71f 64f
8:48 10 14 mph 1025.3mb 71f 64f
8:42 10 13 mph 1025.4mb 71f 64f
8:36 10 13 mph 1025.3mb 71f 64f
8:30 10 14 mph 1025.3mb 71f 64f
8:24 10 15 mph 1025.4mb 71f 64f
8:18 11 14 mph 1025.3mb 71f 64f
8:12 10 13 mph 1025.3mb 71f 64f
8:06 9 13 mph 1025.3mb 70f 64f
8:00 9 11 mph 1025.3mb 70f 65f
7:54 10 11 mph 1025.3mb 70f 65f
7:48 11 13 mph 1025.3mb 70f 65f
7:42 11 14 mph 1025.3mb 70f 65f
7:36 9 15 mph 1025.2mb 70f 65f
7:30 11 14 mph 1025.1mb 70f 65f
7:24 11 14 mph 1025.1mb 70f 65f
7:18 13 15 mph 1025.1mb 70f 65f
7:12 11 14 mph 1025mb 70f 65f
7:06 13 18 mph 1025.1mb 70f 65f
7:00 16 20 mph 1025.1mb 70f 65f
6:54 15 20 mph 1025mb 69f 65f
6:48 16 20 mph 1025mb 70f 65f
6:42 14 16 mph 1025mb 69f 65f
6:36 15 20 mph 1025mb 69f 65f
6:30 16 21 mph 1025.1mb 69f 65f
6:24 16 18 mph 1025.1mb 69f 65f
6:18 14 18 mph 1025mb 69f 66f
6:12 14 17 mph 1025mb 69f 66f
6:06 15 17 mph 1025mb 69f 66f
6:00 17 18 mph 1025mb 69f 66f
5:54 17 20 mph 1025mb 69f 66f
5:48 15 18 mph 1025mb 69f 66f
5:42 11 16 mph 1025mb 70f 66f
5:36 14 17 mph 1025mb 70f 66f
5:30 14 20 mph 1024.9mb 70f 65f
5:24 14 17 mph 1024.9mb 71f 65f
5:18 14 17 mph 1024.9mb 71f 65f
5:12 16 18 mph 1024.9mb 71f 65f
5:06 15 18 mph 1024.9mb 71f 65f
5:00 15 18 mph 1025mb 71f 65f
4:54 14 20 mph 1025mb 71f 65f
4:48 13 17 mph 1025mb 71f 65f
4:42 15 18 mph 1025mb 70f 65f
4:36 15 18 mph 1025mb 70f 65f
4:30 15 17 mph 1025mb 70f 64f
4:24 16 18 mph 1024.9mb 70f 64f
4:18 15 17 mph 1024.9mb 70f 64f
4:12 14 18 mph 1024.9mb 70f 64f
4:06 15 18 mph 1024.9mb 70f 64f
4:00 13 18 mph 1024.9mb 70f 65f
3:54 15 18 mph 1024.9mb 70f 64f
3:48 17 20 mph 1024.9mb 70f 64f
3:42 15 22 mph 1024.9mb 70f 64f
3:36 15 18 mph 1024.9mb 70f 64f
3:30 17 20 mph 1024.9mb 70f 64f
3:24 16 20 mph 1024.9mb 69f 64f
3:18 16 21 mph 1024.9mb 69f 64f
3:12 16 21 mph 1024.9mb 70f 64f
3:06 14 18 mph 1024.8mb 70f 64f
3:00 15 18 mph 1024.8mb 70f 64f
2:54 16 18 mph 1024.8mb 69f 64f
2:48 14 18 mph 1024.8mb 69f 64f
2:42 15 18 mph 1024.7mb 69f 64f
2:36 15 17 mph 1024.7mb 69f 64f